createdAt,value
2018-03-01T00:00:51.871Z,21.22
2018-03-01T00:01:51.864Z,21.19
2018-03-01T00:02:51.854Z,21.20
2018-03-01T00:03:51.844Z,21.19
2018-03-01T00:04:51.837Z,21.23
2018-03-01T00:05:51.836Z,21.23
2018-03-01T00:06:51.821Z,21.22
2018-03-01T00:07:51.812Z,21.17
2018-03-01T00:08:51.804Z,21.23
2018-03-01T00:09:51.796Z,21.20
2018-03-01T00:10:51.788Z,21.25
2018-03-01T00:11:51.779Z,21.22
2018-03-01T00:12:51.771Z,21.25
2018-03-01T00:13:51.760Z,21.23
2018-03-01T00:14:51.753Z,21.17
2018-03-01T00:15:51.745Z,21.19
2018-03-01T00:16:51.736Z,21.23
2018-03-01T00:17:51.727Z,21.26
2018-03-01T00:18:51.719Z,21.25
2018-03-01T00:19:51.711Z,21.28
2018-03-01T00:20:51.702Z,21.20
2018-03-01T00:21:51.695Z,21.26
2018-03-01T00:22:51.685Z,21.25
2018-03-01T00:23:51.679Z,21.15
2018-03-01T00:24:51.670Z,21.26
2018-03-01T00:25:51.660Z,21.23
2018-03-01T00:26:51.654Z,21.25
2018-03-01T00:27:51.644Z,21.26
2018-03-01T00:28:51.637Z,21.25
2018-03-01T00:29:51.628Z,21.25
2018-03-01T00:30:51.620Z,21.17
2018-03-01T00:31:51.611Z,21.23
2018-03-01T00:32:51.607Z,21.23
2018-03-01T00:33:51.594Z,21.15
2018-03-01T00:34:51.590Z,21.17
2018-03-01T00:35:51.577Z,21.22
2018-03-01T00:36:51.567Z,21.19
2018-03-01T00:37:51.561Z,21.20
2018-03-01T00:38:51.553Z,21.17
2018-03-01T00:39:51.544Z,21.22
2018-03-01T00:40:51.536Z,21.14
2018-03-01T00:41:51.527Z,21.23
2018-03-01T00:42:51.518Z,21.22
2018-03-01T00:43:51.510Z,21.15
2018-03-01T00:44:51.500Z,21.20
2018-03-01T00:45:51.493Z,21.13
2018-03-01T00:46:51.483Z,21.15
2018-03-01T00:47:51.478Z,21.22
2018-03-01T00:48:51.471Z,21.15
2018-03-01T00:49:51.458Z,21.20
2018-03-01T00:50:51.453Z,21.20
2018-03-01T00:51:51.444Z,21.28
2018-03-01T00:52:51.435Z,21.15
2018-03-01T00:53:51.425Z,21.11
2018-03-01T00:54:51.415Z,21.19
2018-03-01T00:55:51.410Z,21.13
2018-03-01T00:56:51.400Z,21.20
2018-03-01T00:57:51.394Z,21.17
2018-03-01T00:58:51.382Z,21.15
2018-03-01T00:59:51.375Z,21.14
2018-03-01T01:00:51.368Z,21.17
2018-03-01T01:01:51.358Z,21.14
2018-03-01T01:02:51.350Z,21.14
2018-03-01T01:03:51.343Z,21.14
2018-03-01T01:04:51.334Z,21.15
2018-03-01T01:05:51.324Z,21.14
2018-03-01T01:06:51.317Z,21.17
2018-03-01T01:07:51.308Z,21.14
2018-03-01T01:08:51.301Z,21.13
2018-03-01T01:09:51.291Z,21.15
2018-03-01T01:10:51.281Z,21.19
2018-03-01T01:11:51.281Z,21.13
2018-03-01T01:12:51.265Z,21.13
2018-03-01T01:13:51.257Z,21.17
2018-03-01T01:14:51.249Z,21.17
2018-03-01T01:15:51.244Z,21.14
2018-03-01T01:16:51.233Z,21.15
2018-03-01T01:17:51.223Z,21.15
2018-03-01T01:18:51.255Z,21.11
2018-03-01T01:19:51.207Z,21.15
2018-03-01T01:20:51.200Z,21.19
2018-03-01T01:21:51.191Z,21.15
2018-03-01T01:22:51.182Z,21.20
2018-03-01T01:23:51.173Z,21.19
2018-03-01T01:24:51.164Z,21.14
2018-03-01T01:25:51.160Z,21.17
2018-03-01T01:26:51.149Z,21.19
2018-03-01T01:27:51.141Z,21.13
2018-03-01T01:28:51.131Z,21.14
2018-03-01T01:29:51.124Z,21.17
2018-03-01T01:30:51.118Z,21.10
2018-03-01T01:31:51.104Z,21.13
2018-03-01T01:32:51.097Z,21.13
2018-03-01T01:33:51.090Z,21.15
2018-03-01T01:34:51.081Z,21.10
2018-03-01T01:35:51.072Z,21.13
2018-03-01T01:36:51.065Z,21.14
2018-03-01T01:37:51.056Z,21.04
2018-03-01T01:38:51.046Z,21.01
2018-03-01T01:39:51.039Z,21.15
2018-03-01T01:40:51.029Z,21.07
2018-03-01T01:41:51.020Z,21.03
2018-03-01T01:42:51.013Z,21.08
2018-03-01T01:43:51.003Z,21.03
2018-03-01T01:44:50.997Z,21.04
2018-03-01T01:45:50.989Z,21.08
2018-03-01T01:46:50.979Z,21.10
2018-03-01T01:47:50.971Z,21.01
2018-03-01T01:48:50.963Z,21.07
2018-03-01T01:49:50.953Z,21.07
2018-03-01T01:50:50.946Z,21.03
2018-03-01T01:51:50.937Z,21.08
2018-03-01T01:52:50.929Z,21.05
2018-03-01T01:53:50.919Z,21.11
2018-03-01T01:54:50.918Z,21.07
2018-03-01T01:55:50.904Z,21.08
2018-03-01T01:56:50.896Z,21.08
2018-03-01T01:57:50.887Z,21.01
2018-03-01T01:58:50.878Z,21.05
2018-03-01T01:59:50.870Z,21.05
2018-03-01T02:00:50.861Z,21.04
2018-03-01T02:01:50.852Z,21.01
2018-03-01T02:02:50.845Z,21.05
2018-03-01T02:03:50.836Z,21.03
2018-03-01T02:04:50.828Z,21.07
2018-03-01T02:05:50.817Z,21.08
2018-03-01T02:06:50.810Z,21.01
2018-03-01T02:07:50.802Z,21.05
2018-03-01T02:08:50.792Z,21.04
2018-03-01T02:09:50.786Z,21.08
2018-03-01T02:10:50.779Z,21.04
2018-03-01T02:11:50.769Z,21.04
2018-03-01T02:12:50.764Z,20.96
2018-03-01T02:13:50.751Z,21.07
2018-03-01T02:14:50.744Z,21.00
2018-03-01T02:15:50.737Z,21.08
2018-03-01T02:16:50.726Z,21.07
2018-03-01T02:17:50.718Z,21.04
2018-03-01T02:18:50.710Z,21.10
2018-03-01T02:19:50.700Z,21.07
2018-03-01T02:20:50.692Z,21.03
2018-03-01T02:21:50.685Z,21.05
2018-03-01T02:22:50.678Z,21.07
2018-03-01T02:23:50.673Z,21.03
2018-03-01T02:24:50.660Z,21.00
2018-03-01T02:25:50.654Z,20.98
2018-03-01T02:26:50.643Z,21.01
2018-03-01T02:27:50.634Z,21.01
2018-03-01T02:28:50.625Z,21.05
2018-03-01T02:29:50.616Z,21.07
2018-03-01T02:30:50.609Z,21.04
2018-03-01T02:31:50.612Z,21.05
2018-03-01T02:32:50.602Z,21.05
2018-03-01T02:33:50.583Z,21.03
2018-03-01T02:34:50.576Z,21.05
2018-03-01T02:35:50.572Z,21.01
2018-03-01T02:36:50.558Z,21.08
2018-03-01T02:37:50.564Z,21.07
2018-03-01T02:38:50.543Z,21.04
2018-03-01T02:39:50.550Z,21.07
2018-03-01T02:40:50.526Z,21.07
2018-03-01T02:41:50.516Z,20.98
2018-03-01T02:42:50.566Z,21.00
2018-03-01T02:43:50.500Z,21.05
2018-03-01T02:44:50.492Z,21.00
2018-03-01T02:45:50.482Z,21.08
2018-03-01T02:46:50.473Z,21.07
2018-03-01T02:47:50.465Z,21.05
2018-03-01T02:48:50.456Z,21.07
2018-03-01T02:49:50.446Z,20.98
2018-03-01T02:50:50.442Z,21.07
2018-03-01T02:51:50.434Z,21.04
2018-03-01T02:52:50.423Z,21.07
2018-03-01T02:53:50.413Z,21.04
2018-03-01T02:54:50.407Z,21.00
2018-03-01T02:55:50.401Z,20.98
2018-03-01T02:56:50.394Z,21.01
2018-03-01T02:57:50.383Z,21.00
2018-03-01T02:58:50.373Z,20.98
2018-03-01T02:59:50.363Z,20.96
2018-03-01T03:00:50.357Z,20.96
2018-03-01T03:01:50.347Z,20.89
2018-03-01T03:02:50.338Z,20.86
2018-03-01T03:03:50.329Z,20.90
2018-03-01T03:04:50.323Z,20.83
2018-03-01T03:05:50.313Z,20.85
2018-03-01T03:06:50.306Z,20.88
2018-03-01T03:07:50.299Z,20.83
2018-03-01T03:08:50.287Z,20.85
2018-03-01T03:09:50.281Z,20.92
2018-03-01T03:10:50.271Z,20.85
2018-03-01T03:11:50.262Z,20.90
2018-03-01T03:12:50.254Z,20.83
2018-03-01T03:13:50.245Z,20.90
2018-03-01T03:14:50.238Z,20.89
2018-03-01T03:15:50.228Z,20.88
2018-03-01T03:16:50.219Z,20.86
2018-03-01T03:17:50.211Z,20.83
2018-03-01T03:18:50.205Z,20.86
2018-03-01T03:19:50.195Z,20.88
2018-03-01T03:20:50.186Z,20.83
2018-03-01T03:21:50.177Z,20.82
2018-03-01T03:22:50.169Z,20.82
2018-03-01T03:23:50.160Z,20.93
2018-03-01T03:24:50.154Z,20.86
2018-03-01T03:25:50.142Z,20.86
2018-03-01T03:26:50.134Z,20.93
2018-03-01T03:27:50.126Z,20.88
2018-03-01T03:28:50.118Z,20.86
2018-03-01T03:29:50.111Z,20.86
2018-03-01T03:30:50.104Z,20.85
2018-03-01T03:31:50.091Z,20.89
2018-03-01T03:32:50.085Z,20.90
2018-03-01T03:33:50.080Z,20.98
2018-03-01T03:34:50.066Z,20.85
2018-03-01T03:35:50.059Z,20.96
2018-03-01T03:36:50.050Z,21.03
2018-03-01T03:37:50.040Z,20.85
2018-03-01T03:38:50.032Z,20.90
2018-03-01T03:39:50.026Z,20.90
2018-03-01T03:40:50.017Z,20.93
2018-03-01T03:41:50.007Z,21.00
2018-03-01T03:42:49.999Z,21.01
2018-03-01T03:43:49.989Z,20.96
2018-03-01T03:44:49.982Z,20.98
2018-03-01T03:45:49.972Z,21.00
2018-03-01T03:46:49.965Z,20.95
2018-03-01T03:47:49.955Z,21.05
2018-03-01T03:48:49.948Z,20.98
2018-03-01T03:49:49.941Z,21.01
2018-03-01T03:50:49.932Z,21.04
2018-03-01T03:51:49.922Z,21.01
2018-03-01T03:52:49.914Z,21.01
2018-03-01T03:53:49.904Z,21.07
2018-03-01T03:54:49.897Z,20.98
2018-03-01T03:55:49.888Z,21.01
2018-03-01T03:56:49.880Z,21.05
2018-03-01T03:57:49.871Z,21.07
2018-03-01T03:58:49.862Z,21.07
2018-03-01T03:59:49.859Z,21.04
2018-03-01T04:00:49.846Z,21.04
2018-03-01T04:01:49.838Z,21.14
2018-03-01T04:02:49.830Z,21.14
2018-03-01T04:03:49.821Z,21.22
2018-03-01T04:04:49.811Z,21.20
2018-03-01T04:05:49.804Z,21.20
2018-03-01T04:06:49.794Z,21.23
2018-03-01T04:07:49.787Z,21.25
2018-03-01T04:08:49.777Z,21.25
2018-03-01T04:09:49.848Z,21.22
2018-03-01T04:10:49.789Z,21.32
2018-03-01T04:11:49.781Z,21.26
2018-03-01T04:12:49.745Z,21.41
2018-03-01T04:13:49.753Z,21.32
2018-03-01T04:14:49.744Z,21.43
2018-03-01T04:15:49.721Z,21.44
2018-03-01T04:16:49.712Z,21.43
2018-03-01T04:17:49.711Z,21.45
2018-03-01T04:18:49.696Z,21.38
2018-03-01T04:19:49.686Z,21.40
2018-03-01T04:20:49.680Z,21.48
2018-03-01T04:21:49.667Z,21.51
2018-03-01T04:22:49.677Z,21.35
2018-03-01T04:23:49.653Z,21.38
2018-03-01T04:24:49.646Z,21.41
2018-03-01T04:25:49.637Z,21.38
2018-03-01T04:26:49.631Z,21.38
2018-03-01T04:27:49.621Z,21.35
2018-03-01T04:28:49.610Z,21.38
2018-03-01T04:29:49.602Z,21.43
2018-03-01T04:30:49.595Z,21.47
2018-03-01T04:31:49.599Z,21.44
2018-03-01T04:32:49.580Z,21.43
2018-03-01T04:33:49.571Z,21.45
2018-03-01T04:34:49.563Z,21.45
2018-03-01T04:35:49.554Z,21.40
2018-03-01T04:36:49.546Z,21.32
2018-03-01T04:37:49.536Z,21.35
2018-03-01T04:38:49.528Z,21.38
2018-03-01T04:39:49.521Z,21.35
2018-03-01T04:40:49.510Z,21.38
2018-03-01T04:41:49.501Z,21.50
2018-03-01T04:42:49.496Z,21.41
2018-03-01T04:43:49.492Z,21.38
2018-03-01T04:44:49.481Z,21.38
2018-03-01T04:45:49.473Z,21.40
2018-03-01T04:46:49.465Z,21.40
2018-03-01T04:47:49.453Z,21.35
2018-03-01T04:48:49.448Z,21.43
2018-03-01T04:49:49.438Z,21.50
2018-03-01T04:50:49.431Z,21.51
2018-03-01T04:51:49.424Z,21.51
2018-03-01T04:52:49.414Z,21.44
2018-03-01T04:53:49.406Z,21.08
2018-03-01T04:54:49.396Z,20.89
2018-03-01T04:55:49.389Z,20.83
2018-03-01T04:56:49.381Z,20.88
2018-03-01T04:57:49.372Z,20.71
2018-03-01T04:58:49.363Z,20.68
2018-03-01T04:59:49.357Z,20.67
2018-03-01T05:00:49.348Z,20.67
2018-03-01T05:01:49.339Z,20.68
2018-03-01T05:02:49.331Z,20.66
2018-03-01T05:03:49.322Z,20.68
2018-03-01T05:04:49.313Z,20.63
2018-03-01T05:05:49.303Z,20.66
2018-03-01T05:06:49.298Z,20.67
2018-03-01T05:07:49.290Z,20.64
2018-03-01T05:08:49.280Z,20.66
2018-03-01T05:09:49.269Z,20.67
2018-03-01T05:10:49.262Z,20.56
2018-03-01T05:11:49.253Z,20.58
2018-03-01T05:12:49.245Z,20.67
2018-03-01T05:13:49.235Z,20.66
2018-03-01T05:14:49.225Z,20.70
2018-03-01T05:15:49.218Z,20.75
2018-03-01T05:16:49.210Z,20.74
2018-03-01T05:17:49.200Z,20.85
2018-03-01T05:18:49.191Z,20.90
2018-03-01T05:19:49.184Z,20.86
2018-03-01T05:20:49.176Z,20.88
2018-03-01T05:21:49.167Z,20.95
2018-03-01T05:22:49.156Z,21.11
2018-03-01T05:23:49.150Z,21.07
2018-03-01T05:24:49.141Z,21.01
2018-03-01T05:25:49.133Z,21.13
2018-03-01T05:26:49.253Z,21.15
2018-03-01T05:27:49.120Z,21.20
2018-03-01T05:28:49.107Z,21.32
2018-03-01T05:29:49.097Z,21.35
2018-03-01T05:30:49.089Z,21.32
2018-03-01T05:31:49.080Z,21.37
2018-03-01T05:32:49.073Z,21.38
2018-03-01T05:33:49.066Z,21.38
2018-03-01T05:34:49.060Z,21.40
2018-03-01T05:35:49.046Z,21.47
2018-03-01T05:36:49.038Z,21.48
2018-03-01T05:37:49.029Z,21.56
2018-03-01T05:38:49.021Z,21.53
2018-03-01T05:39:49.013Z,21.59
2018-03-01T05:40:49.005Z,21.56
2018-03-01T05:41:48.996Z,21.50
2018-03-01T05:42:48.988Z,21.48
2018-03-01T05:43:48.981Z,21.50
2018-03-01T05:44:48.971Z,21.62
2018-03-01T05:45:48.964Z,21.53
2018-03-01T05:46:48.959Z,21.48
2018-03-01T05:47:48.960Z,21.58
2018-03-01T05:48:48.938Z,21.50
2018-03-01T05:49:48.929Z,21.65
2018-03-01T05:50:48.921Z,21.50
2018-03-01T05:51:48.917Z,21.51
2018-03-01T05:52:48.904Z,21.50
2018-03-01T05:53:48.895Z,21.59
2018-03-01T05:54:48.889Z,21.59
2018-03-01T05:55:48.882Z,21.51
2018-03-01T05:56:48.873Z,21.56
2018-03-01T05:57:48.867Z,21.59
2018-03-01T05:58:48.882Z,21.47
2018-03-01T05:59:48.846Z,21.47
2018-03-01T06:00:48.843Z,21.51
2018-03-01T06:01:48.831Z,21.40
2018-03-01T06:02:48.823Z,21.47
2018-03-01T06:03:48.814Z,21.43
2018-03-01T06:04:48.804Z,21.40
2018-03-01T06:05:48.797Z,21.38
2018-03-01T06:06:48.789Z,21.48
2018-03-01T06:07:48.789Z,21.44
2018-03-01T06:08:48.774Z,21.28
2018-03-01T06:09:48.764Z,21.35
2018-03-01T06:10:48.756Z,21.29
2018-03-01T06:11:48.751Z,21.35
2018-03-01T06:12:48.740Z,21.29
2018-03-01T06:13:48.731Z,21.32
2018-03-01T06:14:48.723Z,21.32
2018-03-01T06:15:48.716Z,21.30
2018-03-01T06:16:48.710Z,21.29
2018-03-01T06:17:48.695Z,21.35
2018-03-01T06:18:48.691Z,21.25
2018-03-01T06:19:48.682Z,21.26
2018-03-01T06:20:48.675Z,21.28
2018-03-01T06:21:48.665Z,21.28
2018-03-01T06:22:48.657Z,21.25
2018-03-01T06:23:48.649Z,21.29
2018-03-01T06:24:48.640Z,21.29
2018-03-01T06:25:48.631Z,21.22
2018-03-01T06:26:48.625Z,21.28
2018-03-01T06:27:48.614Z,21.25
2018-03-01T06:28:48.607Z,21.23
2018-03-01T06:29:48.597Z,21.15
2018-03-01T06:30:48.590Z,21.23
2018-03-01T06:31:48.581Z,21.25
2018-03-01T06:32:48.573Z,21.26
2018-03-01T06:33:48.568Z,21.25
2018-03-01T06:34:48.556Z,21.23
2018-03-01T06:35:48.555Z,21.26
2018-03-01T06:36:48.540Z,21.23
2018-03-01T06:37:48.530Z,21.25
2018-03-01T06:38:48.522Z,21.28
2018-03-01T06:39:48.518Z,21.28
2018-03-01T06:40:48.511Z,21.28
2018-03-01T06:41:48.497Z,21.29
2018-03-01T06:42:48.489Z,21.30
2018-03-01T06:43:48.481Z,21.25
2018-03-01T06:44:48.480Z,21.22
2018-03-01T06:45:48.478Z,21.38
2018-03-01T06:46:48.455Z,21.28
2018-03-01T06:47:48.449Z,21.37
2018-03-01T06:48:48.441Z,21.30
2018-03-01T06:49:48.436Z,21.30
2018-03-01T06:50:48.422Z,21.28
2018-03-01T06:51:48.414Z,21.28
2018-03-01T06:52:48.408Z,21.29
2018-03-01T06:53:48.397Z,21.26
2018-03-01T06:54:48.390Z,21.25
2018-03-01T06:55:48.380Z,21.26
2018-03-01T06:56:48.372Z,21.38
2018-03-01T06:57:48.364Z,21.25
2018-03-01T06:58:48.355Z,21.35
2018-03-01T06:59:48.348Z,21.30
2018-03-01T07:00:48.340Z,21.29
2018-03-01T07:01:48.332Z,21.23
2018-03-01T07:02:48.325Z,21.26
2018-03-01T07:03:48.315Z,21.35
2018-03-01T07:04:48.307Z,21.30
2018-03-01T07:05:48.348Z,21.33
2018-03-01T07:06:48.294Z,21.29
2018-03-01T07:07:48.286Z,21.32
2018-03-01T07:08:48.273Z,21.33
2018-03-01T07:09:48.265Z,21.26
2018-03-01T07:10:48.257Z,21.25
2018-03-01T07:11:48.250Z,21.35
2018-03-01T07:12:48.239Z,21.32
2018-03-01T07:13:48.230Z,21.33
2018-03-01T07:14:48.221Z,21.29
2018-03-01T07:15:48.215Z,21.28
2018-03-01T07:16:48.207Z,21.30
2018-03-01T07:17:48.198Z,21.28
2018-03-01T07:18:48.189Z,21.26
2018-03-01T07:19:48.182Z,21.26
2018-03-01T07:20:48.174Z,21.32
2018-03-01T07:21:48.167Z,21.30
2018-03-01T07:22:48.156Z,21.30
2018-03-01T07:23:48.149Z,21.33
2018-03-01T07:24:48.140Z,21.38
2018-03-01T07:25:48.131Z,21.29
2018-03-01T07:26:48.122Z,21.29
2018-03-01T07:27:48.159Z,21.30
2018-03-01T07:28:48.107Z,21.32
2018-03-01T07:29:48.100Z,21.25
2018-03-01T07:30:48.089Z,21.32
2018-03-01T07:31:48.081Z,21.29
2018-03-01T07:32:48.073Z,21.26
2018-03-01T07:33:48.063Z,21.32
2018-03-01T07:34:48.057Z,21.25
2018-03-01T07:35:48.049Z,21.32
2018-03-01T07:36:48.040Z,21.25
2018-03-01T07:37:48.032Z,21.28
2018-03-01T07:38:48.028Z,21.32
2018-03-01T07:39:48.015Z,21.30
2018-03-01T07:40:48.007Z,21.35
2018-03-01T07:41:47.997Z,21.30
2018-03-01T07:42:47.991Z,21.28
2018-03-01T07:43:47.982Z,21.29
2018-03-01T07:44:47.972Z,21.32
2018-03-01T07:45:47.965Z,21.23
2018-03-01T07:46:47.956Z,21.28
2018-03-01T07:47:47.948Z,21.28
2018-03-01T07:48:47.940Z,21.30
2018-03-01T07:49:47.931Z,21.29
2018-03-01T07:50:47.923Z,21.23
2018-03-01T07:51:47.922Z,21.35
2018-03-01T07:52:47.911Z,21.37
2018-03-01T07:53:47.899Z,21.26
2018-03-01T07:54:47.893Z,21.30
2018-03-01T07:55:47.880Z,21.29
2018-03-01T07:56:47.873Z,21.28
2018-03-01T07:57:47.862Z,21.43
2018-03-01T07:58:47.856Z,21.40
2018-03-01T07:59:47.850Z,21.32
2018-03-01T08:00:47.839Z,21.44
2018-03-01T08:01:47.832Z,21.40
2018-03-01T08:02:47.824Z,21.32
2018-03-01T08:03:47.814Z,21.44
2018-03-01T08:04:47.807Z,21.43
2018-03-01T08:05:47.798Z,21.41
2018-03-01T08:06:47.789Z,21.47
2018-03-01T08:07:47.781Z,21.41
2018-03-01T08:08:47.773Z,21.41
2018-03-01T08:09:47.765Z,21.48
2018-03-01T08:10:47.756Z,21.38
2018-03-01T08:11:47.749Z,21.45
2018-03-01T08:12:47.740Z,21.43
2018-03-01T08:13:47.732Z,21.43
2018-03-01T08:14:47.724Z,21.38
2018-03-01T08:15:47.716Z,21.47
2018-03-01T08:16:47.709Z,21.43
2018-03-01T08:17:47.698Z,21.38
2018-03-01T08:18:47.690Z,21.43
2018-03-01T08:19:47.682Z,21.44
2018-03-01T08:20:47.674Z,21.44
2018-03-01T08:21:47.666Z,21.41
2018-03-01T08:22:47.655Z,21.44
2018-03-01T08:23:47.649Z,21.43
2018-03-01T08:24:47.642Z,21.45
2018-03-01T08:25:47.633Z,21.43
2018-03-01T08:26:47.623Z,21.48
2018-03-01T08:27:47.617Z,21.41
2018-03-01T08:28:47.608Z,21.50
2018-03-01T08:29:47.599Z,21.53
2018-03-01T08:30:47.590Z,21.56
2018-03-01T08:31:47.582Z,21.59
2018-03-01T08:32:47.576Z,21.50
2018-03-01T08:33:47.566Z,21.51
2018-03-01T08:34:47.559Z,21.65
2018-03-01T08:35:47.551Z,21.65
2018-03-01T08:36:47.544Z,21.66
2018-03-01T08:37:47.531Z,21.69
2018-03-01T08:38:47.526Z,21.69
2018-03-01T08:39:47.518Z,21.77
2018-03-01T08:40:47.510Z,21.75
2018-03-01T08:41:47.501Z,21.83
2018-03-01T08:42:47.539Z,21.74
2018-03-01T08:43:47.483Z,21.81
2018-03-01T08:44:47.477Z,21.83
2018-03-01T08:45:47.466Z,21.77
2018-03-01T08:46:47.461Z,21.88
2018-03-01T08:47:47.476Z,21.92
2018-03-01T08:48:47.463Z,21.89
2018-03-01T08:49:47.437Z,21.89
2018-03-01T08:50:47.427Z,21.97
2018-03-01T08:51:47.420Z,21.94
2018-03-01T08:52:47.412Z,21.99
2018-03-01T08:53:47.405Z,22.01
2018-03-01T08:54:47.396Z,21.99
2018-03-01T08:55:47.388Z,21.97
2018-03-01T08:56:47.383Z,22.04
2018-03-01T08:57:47.430Z,22.01
2018-03-01T08:58:47.364Z,22.04
2018-03-01T08:59:47.397Z,22.03
2018-03-01T09:00:47.349Z,22.07
2018-03-01T09:01:47.342Z,22.18
2018-03-01T09:02:47.335Z,22.15
2018-03-01T09:03:47.325Z,22.15
2018-03-01T09:04:47.317Z,22.22
2018-03-01T09:05:47.309Z,22.18
2018-03-01T09:06:47.299Z,22.26
2018-03-01T09:07:47.292Z,22.28
2018-03-01T09:08:47.285Z,22.25
2018-03-01T09:09:47.277Z,22.28
2018-03-01T09:10:47.269Z,22.26
2018-03-01T09:11:47.261Z,22.37
2018-03-01T09:12:47.257Z,22.40
2018-03-01T09:13:47.247Z,22.49
2018-03-01T09:14:47.237Z,22.49
2018-03-01T09:15:47.230Z,22.46
2018-03-01T09:16:47.223Z,22.58
2018-03-01T09:17:47.219Z,22.59
2018-03-01T09:18:47.208Z,22.68
2018-03-01T09:19:47.201Z,22.68
2018-03-01T09:20:47.194Z,22.71
2018-03-01T09:21:47.186Z,22.80
2018-03-01T09:22:47.177Z,22.92
2018-03-01T09:23:47.175Z,22.96
2018-03-01T09:24:47.170Z,23.02
2018-03-01T09:25:47.159Z,23.06
2018-03-01T09:26:47.150Z,23.14
2018-03-01T09:27:47.144Z,23.11
2018-03-01T09:28:47.139Z,23.28
2018-03-01T09:29:47.126Z,23.33
2018-03-01T09:30:47.118Z,23.29
2018-03-01T09:31:47.112Z,23.45
2018-03-01T09:32:47.102Z,23.42
2018-03-01T09:33:47.097Z,23.54
2018-03-01T09:34:47.090Z,23.59
2018-03-01T09:35:47.082Z,23.59
2018-03-01T09:36:47.077Z,23.63
2018-03-01T09:37:47.068Z,23.69
2018-03-01T09:38:47.062Z,23.67
2018-03-01T09:39:47.055Z,23.71
2018-03-01T09:40:47.047Z,23.71
2018-03-01T09:41:47.041Z,23.67
2018-03-01T09:42:47.033Z,23.66
2018-03-01T09:43:47.028Z,23.77
2018-03-01T09:44:47.022Z,23.86
2018-03-01T09:45:47.014Z,23.85
2018-03-01T09:46:47.006Z,23.77
2018-03-01T09:47:47.002Z,23.82
2018-03-01T09:48:46.994Z,23.94
2018-03-01T09:49:46.985Z,23.91
2018-03-01T09:50:46.979Z,23.92
2018-03-01T09:51:46.971Z,23.92
2018-03-01T09:52:46.966Z,24.00
2018-03-01T09:53:46.962Z,23.94
2018-03-01T09:54:46.952Z,24.03
2018-03-01T09:55:46.945Z,24.01
2018-03-01T09:56:46.941Z,24.09
2018-03-01T09:57:46.931Z,24.06
2018-03-01T09:58:46.928Z,24.07
2018-03-01T09:59:46.920Z,24.10
2018-03-01T10:00:46.912Z,24.10
2018-03-01T10:01:46.904Z,24.19
2018-03-01T10:02:46.900Z,24.19
2018-03-01T10:03:46.893Z,24.21
2018-03-01T10:04:46.888Z,24.21
2018-03-01T10:05:46.878Z,24.28
2018-03-01T10:06:46.875Z,24.22
2018-03-01T10:07:46.867Z,24.25
2018-03-01T10:08:46.861Z,24.16
2018-03-01T10:09:46.852Z,24.21
2018-03-01T10:10:46.848Z,24.25
2018-03-01T10:11:46.842Z,24.22
2018-03-01T10:12:46.833Z,24.22
2018-03-01T10:13:46.829Z,24.28
2018-03-01T10:14:46.823Z,24.32
2018-03-01T10:15:46.815Z,24.25
2018-03-01T10:16:46.811Z,24.26
2018-03-01T10:17:46.801Z,24.19
2018-03-01T10:18:46.798Z,24.29
2018-03-01T10:19:46.790Z,24.19
2018-03-01T10:20:46.785Z,24.26
2018-03-01T10:21:46.777Z,24.18
2018-03-01T10:22:46.772Z,24.31
2018-03-01T10:23:46.765Z,24.31
2018-03-01T10:24:46.760Z,24.19
2018-03-01T10:25:46.753Z,24.26
2018-03-01T10:26:46.748Z,24.29
2018-03-01T10:27:46.745Z,24.37
2018-03-01T10:28:46.735Z,24.36
2018-03-01T10:29:46.727Z,24.40
2018-03-01T10:30:46.761Z,24.32
2018-03-01T10:31:46.716Z,24.32
2018-03-01T10:32:46.715Z,24.41
2018-03-01T10:33:46.705Z,24.43
2018-03-01T10:34:46.694Z,24.46
2018-03-01T10:35:46.690Z,24.41
2018-03-01T10:36:46.683Z,24.50
2018-03-01T10:37:46.676Z,24.53
2018-03-01T10:38:46.671Z,24.43
2018-03-01T10:39:46.666Z,24.50
2018-03-01T10:40:46.660Z,24.44
2018-03-01T10:41:46.654Z,24.55
2018-03-01T10:42:46.646Z,24.44
2018-03-01T10:43:46.638Z,24.41
2018-03-01T10:44:46.634Z,24.41
2018-03-01T10:45:46.629Z,24.46
2018-03-01T10:46:46.622Z,24.40
2018-03-01T10:47:46.616Z,24.46
2018-03-01T10:48:46.609Z,24.41
2018-03-01T10:49:46.602Z,24.38
2018-03-01T10:50:46.600Z,24.38
2018-03-01T10:51:46.591Z,24.36
2018-03-01T10:52:46.583Z,24.36
2018-03-01T10:53:46.579Z,24.38
2018-03-01T10:54:46.573Z,24.36
2018-03-01T10:55:46.567Z,24.28
2018-03-01T10:56:46.562Z,24.25
2018-03-01T10:57:46.553Z,24.31
2018-03-01T10:58:46.549Z,24.29
2018-03-01T10:59:46.540Z,24.26
2018-03-01T11:00:46.537Z,24.19
2018-03-01T11:01:46.529Z,24.19
2018-03-01T11:02:46.522Z,24.24
2018-03-01T11:03:46.519Z,24.19
2018-03-01T11:04:46.510Z,24.21
2018-03-01T11:05:46.503Z,24.18
2018-03-01T11:06:46.497Z,24.11
2018-03-01T11:07:46.492Z,24.13
2018-03-01T11:08:46.485Z,24.14
2018-03-01T11:09:46.479Z,24.16
2018-03-01T11:10:46.514Z,24.13
2018-03-01T11:11:46.465Z,24.06
2018-03-01T11:12:46.461Z,24.06
2018-03-01T11:13:46.451Z,24.03
2018-03-01T11:14:46.447Z,24.10
2018-03-01T11:15:46.442Z,24.10
2018-03-01T11:16:46.435Z,24.07
2018-03-01T11:17:46.425Z,24.07
2018-03-01T11:18:46.422Z,24.03
2018-03-01T11:19:46.414Z,24.10
2018-03-01T11:20:46.410Z,24.07
2018-03-01T11:21:46.404Z,24.09
2018-03-01T11:22:46.396Z,24.04
2018-03-01T11:23:46.390Z,24.07
2018-03-01T11:24:46.384Z,24.07
2018-03-01T11:25:46.377Z,24.07
2018-03-01T11:26:46.371Z,24.03
2018-03-01T11:27:46.363Z,24.09
2018-03-01T11:28:46.358Z,24.03
2018-03-01T11:29:46.355Z,24.07
2018-03-01T11:30:46.344Z,24.13
2018-03-01T11:31:46.340Z,24.10
2018-03-01T11:32:46.335Z,24.09
2018-03-01T11:33:46.326Z,24.10
2018-03-01T11:34:46.386Z,24.10
2018-03-01T11:35:46.315Z,24.03
2018-03-01T11:36:46.307Z,23.99
2018-03-01T11:37:46.300Z,24.10
2018-03-01T11:38:46.307Z,23.95
2018-03-01T11:39:46.287Z,23.95
2018-03-01T11:40:46.282Z,23.95
2018-03-01T11:41:46.275Z,23.96
2018-03-01T11:42:46.272Z,23.95
2018-03-01T11:43:46.261Z,24.01
2018-03-01T11:44:46.256Z,24.04
2018-03-01T11:45:46.250Z,23.99
2018-03-01T11:46:46.244Z,23.92
2018-03-01T11:47:46.236Z,24.04
2018-03-01T11:48:46.230Z,23.99
2018-03-01T11:49:46.224Z,23.92
2018-03-01T11:50:46.251Z,23.94
2018-03-01T11:51:46.211Z,23.92
2018-03-01T11:52:46.204Z,23.92
2018-03-01T11:53:46.198Z,23.94
2018-03-01T11:54:46.190Z,23.88
2018-03-01T11:55:46.183Z,23.81
2018-03-01T11:56:46.177Z,23.73
2018-03-01T11:57:46.170Z,23.79
2018-03-01T11:58:46.164Z,23.79
2018-03-01T11:59:46.180Z,23.73
2018-03-01T12:00:46.178Z,23.69
2018-03-01T12:01:46.143Z,23.73
2018-03-01T12:02:46.141Z,23.76
2018-03-01T12:03:46.130Z,23.66
2018-03-01T12:04:46.125Z,23.67
2018-03-01T12:05:46.118Z,23.64
2018-03-01T12:06:46.110Z,23.59
2018-03-01T12:07:46.106Z,23.58
2018-03-01T12:08:46.100Z,23.63
2018-03-01T12:09:46.090Z,23.56
2018-03-01T12:10:46.085Z,23.62
2018-03-01T12:11:46.078Z,23.56
2018-03-01T12:12:46.078Z,23.51
2018-03-01T12:13:46.065Z,23.48
2018-03-01T12:14:46.060Z,23.52
2018-03-01T12:15:46.052Z,23.49
2018-03-01T12:16:46.045Z,23.48
2018-03-01T12:17:46.038Z,23.33
2018-03-01T12:18:46.031Z,23.29
2018-03-01T12:19:46.024Z,23.40
2018-03-01T12:20:46.020Z,23.28
2018-03-01T12:21:46.011Z,23.28
2018-03-01T12:22:46.003Z,23.32
2018-03-01T12:23:45.996Z,23.18
2018-03-01T12:24:45.989Z,23.14
2018-03-01T12:25:45.982Z,23.08
2018-03-01T12:26:45.975Z,23.11
2018-03-01T12:27:45.970Z,23.02
2018-03-01T12:28:45.962Z,22.99
2018-03-01T12:29:45.956Z,23.07
2018-03-01T12:30:45.948Z,23.06
2018-03-01T12:31:45.940Z,22.98
2018-03-01T12:32:45.935Z,22.95
2018-03-01T12:33:45.927Z,22.98
2018-03-01T12:34:45.921Z,23.06
2018-03-01T12:35:45.914Z,23.04
2018-03-01T12:36:45.910Z,23.06
2018-03-01T12:37:45.899Z,23.06
2018-03-01T12:38:45.891Z,23.02
2018-03-01T12:39:45.886Z,23.01
2018-03-01T12:40:45.879Z,23.01
2018-03-01T12:41:45.877Z,23.08
2018-03-01T12:42:45.864Z,23.06
2018-03-01T12:43:45.856Z,22.99
2018-03-01T12:44:45.855Z,22.98
2018-03-01T12:45:45.842Z,22.96
2018-03-01T12:46:45.834Z,23.01
2018-03-01T12:47:45.832Z,23.06
2018-03-01T12:48:45.823Z,22.98
2018-03-01T12:49:45.814Z,22.98
2018-03-01T12:50:45.808Z,23.11
2018-03-01T12:51:45.802Z,23.02
2018-03-01T12:52:45.794Z,22.99